Impacts METAR Board INFO
IDs:

KIAD - Washington/Dulles In, VA, US

Updated at: 1307 UTC 20 Jan 2018
Potential Impact None Slight Moderate High
Time20/01Z 20/02Z 20/03Z 20/04Z 20/05Z 20/06Z 20/07Z 20/08Z 20/09Z 20/10Z 20/11Z 20/12Z 20/13Z
VIS10 10 10 10 10 10 10 10 10 10 10 10 10
CIG-- -- -- -- -- -- -- -- -- -- -- -- --
CoverCLRCLRCLRCLRCLRCLRCLRCLRCLRCLRCLRFEWFEW
FltCatVFRVFRVFRVFRVFRVFRVFRVFRVFRVFRVFRVFRVFR
WX--------------------------
WDir170000130000013001900
WSpd4 0 0 0 3 0 0 0 0 3 0 3 0
WGst-- -- -- -- -- -- -- -- -- -- -- -- --
Raw hourly METARs
KIAD 200052Z 17004KT 10SM CLR 03/M11 A3003 RMK AO2 SLP173 T00331106
KIAD 200152Z 00000KT 10SM CLR 01/M09 A3004 RMK AO2 SLP175 T00061094
KIAD 200252Z 00000KT 10SM CLR M02/M09 A3004 RMK AO2 SLP173 T10171094 50001
KIAD 200352Z 00000KT 10SM CLR M03/M09 A3004 RMK AO2 SLP173 T10281089
KIAD 200452Z 13003KT 10SM CLR M04/M08 A3002 RMK AO2 SLP169 T10391083 401221083
KIAD 200552Z 00000KT 10SM CLR M04/M08 A3001 RMK AO2 SLP165 T10441083 10050 21044 58008
KIAD 200652Z 00000KT 10SM CLR M04/M09 A2999 RMK AO2 SLP159 T10441089
KIAD 200752Z 00000KT 10SM CLR M04/M09 A2999 RMK AO2 SLP159 T10441089
KIAD 200852Z 00000KT 10SM CLR M06/M09 A2998 RMK AO2 SLP153 T10561089 56012
KIAD 200952Z 13003KT 10SM CLR M06/M09 A2999 RMK AO2 SLP157 T10611089
KIAD 201052Z 00000KT 10SM CLR M06/M08 A2999 RMK AO2 SLP159 T10561083
KIAD 201152Z 19003KT 10SM FEW250 M05/M09 A3000 RMK AO2 SLP161 T10501089 11033 21067 51007
KIAD 201252Z 00000KT 10SM FEW150 FEW250 M05/M08 A3001 RMK AO2 SLP164 T10501083